createdAt,value
2024-04-19T00:00:50.753Z,4.46
2024-04-19T00:01:52.910Z,4.46
2024-04-19T00:02:55.079Z,4.42
2024-04-19T00:03:58.322Z,4.49
2024-04-19T00:05:00.597Z,4.37
2024-04-19T00:06:03.257Z,4.32
2024-04-19T00:07:08.529Z,4.36
2024-04-19T00:08:15.440Z,4.30
2024-04-19T00:09:17.864Z,4.32
2024-04-19T00:10:20.787Z,4.21
2024-04-19T00:11:23.059Z,4.31
2024-04-19T00:12:25.630Z,4.34
2024-04-19T00:13:27.832Z,4.38
2024-04-19T00:14:30.924Z,4.31
2024-04-19T00:15:33.134Z,4.30
2024-04-19T00:16:36.178Z,4.32
2024-04-19T00:17:38.181Z,4.34
2024-04-19T00:18:40.488Z,4.30
2024-04-19T00:19:42.771Z,4.38
2024-04-19T00:20:45.566Z,4.29
2024-04-19T00:21:47.869Z,4.32
2024-04-19T00:22:50.408Z,4.30
2024-04-19T00:23:52.979Z,4.27
2024-04-19T00:24:55.194Z,4.25
2024-04-19T00:25:57.855Z,4.27
2024-04-19T00:27:12.253Z,4.16
2024-04-19T00:28:21.013Z,4.27
2024-04-19T00:29:23.237Z,4.28
2024-04-19T00:30:25.719Z,4.27
2024-04-19T00:31:30.325Z,4.23
2024-04-19T00:32:32.624Z,4.29
2024-04-19T00:33:36.276Z,4.26
2024-04-19T00:34:39.707Z,4.15
2024-04-19T00:35:43.616Z,4.15
2024-04-19T00:36:45.899Z,4.17
2024-04-19T00:37:48.195Z,4.15
2024-04-19T00:39:08.652Z,4.18
2024-04-19T00:40:11.408Z,4.21
2024-04-19T00:41:13.699Z,4.12
2024-04-19T00:42:16.233Z,4.18
2024-04-19T00:43:18.577Z,4.14
2024-04-19T00:44:20.992Z,4.14
2024-04-19T00:45:35.045Z,4.23
2024-04-19T00:46:37.954Z,4.26
2024-04-19T00:47:43.072Z,4.25
2024-04-19T00:48:47.219Z,4.26
2024-04-19T00:49:49.792Z,4.28
2024-04-19T00:50:58.393Z,4.29
2024-04-19T00:52:04.348Z,4.26
2024-04-19T00:53:07.501Z,4.32
2024-04-19T00:54:09.861Z,4.31
2024-04-19T00:55:12.161Z,4.30
2024-04-19T00:56:14.790Z,4.32
2024-04-19T00:57:17.062Z,4.32
2024-04-19T00:58:20.131Z,4.28
2024-04-19T00:59:23.919Z,4.27
2024-04-19T01:00:26.887Z,4.27
2024-04-19T01:01:29.824Z,4.21
2024-04-19T01:02:34.101Z,4.24
2024-04-19T01:03:38.630Z,4.27
2024-04-19T01:04:41.675Z,4.21
2024-04-19T01:05:43.965Z,4.25
2024-04-19T01:07:01.364Z,4.21
2024-04-19T01:08:03.914Z,4.23
2024-04-19T01:09:06.284Z,4.27
2024-04-19T01:10:09.401Z,4.28
2024-04-19T01:11:12.514Z,4.24
2024-04-19T01:12:15.043Z,4.26
2024-04-19T01:13:17.496Z,4.29
2024-04-19T01:14:19.702Z,4.29
2024-04-19T01:15:23.518Z,4.27
2024-04-19T01:16:25.944Z,4.16
2024-04-19T01:17:28.355Z,4.15
2024-04-19T01:18:30.702Z,4.22
2024-04-19T01:19:32.992Z,4.21
2024-04-19T01:20:35.431Z,4.23
2024-04-19T01:21:38.585Z,4.21
2024-04-19T01:22:43.338Z,4.22
2024-04-19T01:23:46.267Z,4.25
2024-04-19T01:24:52.255Z,4.18
2024-04-19T01:25:55.582Z,4.23
2024-04-19T01:26:57.969Z,4.21
2024-04-19T01:28:00.889Z,4.26
2024-04-19T01:29:03.208Z,4.23
2024-04-19T01:30:07.185Z,4.20
2024-04-19T01:31:09.544Z,4.23
2024-04-19T01:32:11.776Z,4.24
2024-04-19T01:33:15.105Z,4.27
2024-04-19T01:34:19.302Z,4.20
2024-04-19T01:35:21.790Z,4.21
2024-04-19T01:36:23.926Z,4.27
2024-04-19T01:37:26.543Z,4.22
2024-04-19T01:38:28.470Z,4.10
2024-04-19T01:39:31.293Z,4.14
2024-04-19T01:40:33.930Z,4.08
2024-04-19T01:41:36.141Z,4.03
2024-04-19T01:42:38.299Z,4.00
2024-04-19T01:43:42.289Z,4.13
2024-04-19T01:44:44.438Z,4.18
2024-04-19T01:45:46.425Z,4.07
2024-04-19T01:46:48.673Z,4.15
2024-04-19T01:47:50.977Z,4.07
2024-04-19T01:48:53.530Z,4.13
2024-04-19T01:49:55.785Z,4.09
2024-04-19T01:50:58.004Z,4.08
2024-04-19T01:52:00.340Z,4.15
2024-04-19T01:53:02.969Z,4.11
2024-04-19T01:54:05.309Z,4.07
2024-04-19T01:55:07.531Z,4.16
2024-04-19T01:56:10.119Z,4.18
2024-04-19T01:57:15.382Z,4.18
2024-04-19T01:58:17.556Z,4.21
2024-04-19T01:59:19.858Z,4.18
2024-04-19T02:00:22.261Z,4.21
2024-04-19T02:01:24.628Z,4.18
2024-04-19T02:02:28.820Z,4.26
2024-04-19T02:03:31.124Z,4.24
2024-04-19T02:04:34.056Z,4.25
2024-04-19T02:05:36.547Z,4.21
2024-04-19T02:06:38.951Z,4.18
2024-04-19T02:07:43.323Z,4.25
2024-04-19T02:08:45.379Z,4.20
2024-04-19T02:09:47.792Z,4.26
2024-04-19T02:10:50.049Z,4.15
2024-04-19T02:11:52.158Z,4.16
2024-04-19T02:12:54.334Z,4.13
2024-04-19T02:13:56.712Z,4.05
2024-04-19T02:14:59.347Z,4.08
2024-04-19T02:16:01.674Z,4.11
2024-04-19T02:17:04.187Z,4.16
2024-04-19T02:18:06.883Z,4.23
2024-04-19T02:19:09.107Z,4.22
2024-04-19T02:20:11.614Z,4.26
2024-04-19T02:21:14.052Z,4.28
2024-04-19T02:22:16.307Z,4.16
2024-04-19T02:23:37.378Z,4.19
2024-04-19T02:24:39.744Z,4.27
2024-04-19T02:25:43.772Z,4.26
2024-04-19T02:26:47.941Z,4.31
2024-04-19T02:28:09.009Z,4.34
2024-04-19T02:29:29.343Z,4.30
2024-04-19T02:30:50.445Z,4.24
2024-04-19T02:31:52.670Z,4.23
2024-04-19T02:32:54.952Z,4.25
2024-04-19T02:33:57.271Z,4.31
2024-04-19T02:34:59.385Z,4.22
2024-04-19T02:36:02.235Z,4.20
2024-04-19T02:37:04.522Z,4.23
2024-04-19T02:38:06.641Z,4.27
2024-04-19T02:39:09.357Z,4.26
2024-04-19T02:40:11.775Z,4.27
2024-04-19T02:41:13.970Z,4.31
2024-04-19T02:42:16.853Z,4.25
2024-04-19T02:43:28.582Z,4.28
2024-04-19T02:44:36.727Z,4.25
2024-04-19T02:45:47.772Z,4.27
2024-04-19T02:46:45.643Z,4.29
2024-04-19T02:47:47.745Z,4.25
2024-04-19T02:48:51.799Z,4.24
2024-04-19T02:49:54.024Z,4.28
2024-04-19T02:50:57.182Z,4.34
2024-04-19T02:51:59.858Z,4.31
2024-04-19T02:53:02.017Z,4.38
2024-04-19T02:54:04.702Z,4.37
2024-04-19T02:55:07.622Z,4.40
2024-04-19T02:56:10.724Z,4.40
2024-04-19T02:57:12.905Z,4.42
2024-04-19T02:58:15.022Z,4.41
2024-04-19T02:59:17.164Z,4.49
2024-04-19T03:00:19.472Z,4.50
2024-04-19T03:01:22.200Z,4.47
2024-04-19T03:02:24.323Z,4.54
2024-04-19T03:03:26.596Z,4.43
2024-04-19T03:04:28.824Z,4.45
2024-04-19T03:05:31.149Z,4.49
2024-04-19T03:06:33.544Z,4.44
2024-04-19T03:07:35.736Z,4.52
2024-04-19T03:08:38.401Z,4.55
2024-04-19T03:09:40.984Z,4.57
2024-04-19T03:10:43.328Z,4.54
2024-04-19T03:11:45.351Z,4.54
2024-04-19T03:12:47.866Z,4.58
2024-04-19T03:13:50.228Z,4.57
2024-04-19T03:14:52.794Z,4.63
2024-04-19T03:16:04.264Z,4.62
2024-04-19T03:17:18.086Z,4.58
2024-04-19T03:18:20.512Z,4.57
2024-04-19T03:19:23.235Z,4.55
2024-04-19T03:20:26.620Z,4.53
2024-04-19T03:21:28.708Z,4.55
2024-04-19T03:22:30.815Z,4.60
2024-04-19T03:23:32.937Z,4.64
2024-04-19T03:24:37.988Z,4.66
2024-04-19T03:25:39.993Z,4.61
2024-04-19T03:26:43.540Z,4.65
2024-04-19T03:27:45.793Z,4.73
2024-04-19T03:28:50.853Z,4.73
2024-04-19T03:29:56.899Z,4.71
2024-04-19T03:30:59.543Z,4.70
2024-04-19T03:32:02.085Z,4.64
2024-04-19T03:33:04.935Z,4.67
2024-04-19T03:34:07.177Z,4.70
2024-04-19T03:35:09.610Z,4.69
2024-04-19T03:36:12.116Z,4.74
2024-04-19T03:37:14.464Z,4.73
2024-04-19T03:38:17.190Z,4.70
2024-04-19T03:39:19.831Z,4.75
2024-04-19T03:40:22.235Z,4.70
2024-04-19T03:41:24.950Z,4.68
2024-04-19T03:42:27.474Z,4.61
2024-04-19T03:43:31.816Z,4.56
2024-04-19T03:44:53.103Z,4.57
2024-04-19T03:45:55.193Z,4.49
2024-04-19T03:46:57.871Z,4.55
2024-04-19T03:48:00.360Z,4.50
2024-04-19T03:49:02.817Z,4.51
2024-04-19T03:50:06.324Z,4.51
2024-04-19T03:51:09.236Z,4.48
2024-04-19T03:52:11.320Z,4.40
2024-04-19T03:53:13.372Z,4.38
2024-04-19T03:54:15.447Z,4.40
2024-04-19T03:55:17.672Z,4.39
2024-04-19T03:56:20.186Z,4.35
2024-04-19T03:57:22.342Z,4.37
2024-04-19T03:58:25.769Z,4.40
2024-04-19T03:59:28.004Z,4.42
2024-04-19T04:00:32.282Z,4.46
2024-04-19T04:01:36.191Z,4.36
2024-04-19T04:02:38.691Z,4.38
2024-04-19T04:03:41.906Z,4.43
2024-04-19T04:04:45.795Z,4.39
2024-04-19T04:05:52.161Z,4.42
2024-04-19T04:06:54.467Z,4.36
2024-04-19T04:07:56.494Z,4.44
2024-04-19T04:08:58.734Z,4.46
2024-04-19T04:10:01.551Z,4.42
2024-04-19T04:11:03.959Z,4.43
2024-04-19T04:12:06.218Z,4.46
2024-04-19T04:13:08.247Z,4.38
2024-04-19T04:14:10.680Z,4.37
2024-04-19T04:15:13.327Z,4.40
2024-04-19T04:16:16.012Z,4.40
2024-04-19T04:17:18.097Z,4.36
2024-04-19T04:18:20.332Z,4.32
2024-04-19T04:19:22.896Z,4.32
2024-04-19T04:20:25.019Z,4.41
2024-04-19T04:21:27.168Z,4.46
2024-04-19T04:22:29.321Z,4.48
2024-04-19T04:23:32.237Z,4.48
2024-04-19T04:24:35.239Z,4.51
2024-04-19T04:25:37.410Z,4.50
2024-04-19T04:26:39.875Z,4.52
2024-04-19T04:27:42.204Z,4.55
2024-04-19T04:28:44.479Z,4.60
2024-04-19T04:29:46.791Z,4.61
2024-04-19T04:30:50.168Z,4.57
2024-04-19T04:31:52.642Z,4.59
2024-04-19T04:32:55.227Z,4.61
2024-04-19T04:33:57.544Z,4.68
2024-04-19T04:35:00.234Z,4.69
2024-04-19T04:36:02.539Z,4.68
2024-04-19T04:37:04.996Z,4.78
2024-04-19T04:38:07.439Z,4.82
2024-04-19T04:39:10.639Z,4.76
2024-04-19T04:40:13.369Z,4.80
2024-04-19T04:41:16.615Z,4.78
2024-04-19T04:42:19.032Z,4.79
2024-04-19T04:43:21.518Z,4.80
2024-04-19T04:44:24.645Z,4.84
2024-04-19T04:45:26.967Z,4.84
2024-04-19T04:46:29.176Z,4.81
2024-04-19T04:47:34.357Z,4.82
2024-04-19T04:48:36.564Z,4.71
2024-04-19T04:49:39.606Z,4.71
2024-04-19T04:50:41.901Z,4.79
2024-04-19T04:51:43.959Z,4.84
2024-04-19T04:52:46.275Z,4.86
2024-04-19T04:53:48.868Z,4.92
2024-04-19T04:54:51.432Z,4.89
2024-04-19T04:55:53.735Z,4.95
2024-04-19T04:56:56.270Z,4.99
2024-04-19T04:57:59.241Z,5.01
2024-04-19T04:59:01.645Z,5.07
2024-04-19T05:00:05.873Z,5.10
2024-04-19T05:01:08.798Z,5.12
2024-04-19T05:02:11.821Z,5.15
2024-04-19T05:03:14.716Z,5.05
2024-04-19T05:04:17.157Z,5.13
2024-04-19T05:05:19.398Z,5.18
2024-04-19T05:06:21.540Z,5.21
2024-04-19T05:07:25.681Z,5.22
2024-04-19T05:08:28.110Z,5.17
2024-04-19T05:09:30.513Z,5.27
2024-04-19T05:10:33.018Z,5.28
2024-04-19T05:11:35.412Z,5.36
2024-04-19T05:12:37.756Z,5.34
2024-04-19T05:13:39.807Z,5.37
2024-04-19T05:14:41.875Z,5.39
2024-04-19T05:15:44.199Z,5.39
2024-04-19T05:16:46.511Z,5.49
2024-04-19T05:17:49.667Z,5.53
2024-04-19T05:18:53.518Z,5.60
2024-04-19T05:19:55.788Z,5.55
2024-04-19T05:20:57.942Z,5.57
2024-04-19T05:22:00.280Z,5.59
2024-04-19T05:23:02.754Z,5.56
2024-04-19T05:24:06.871Z,5.53
2024-04-19T05:25:09.256Z,5.59
2024-04-19T05:26:11.487Z,5.60
2024-04-19T05:27:13.677Z,5.68
2024-04-19T05:28:16.055Z,5.68
2024-04-19T05:29:18.268Z,5.66
2024-04-19T05:30:20.975Z,5.66
2024-04-19T05:31:23.455Z,5.71
2024-04-19T05:32:25.879Z,5.77
2024-04-19T05:33:29.567Z,5.72
2024-04-19T05:34:35.574Z,5.78
2024-04-19T05:35:36.190Z,5.76
2024-04-19T05:36:38.855Z,5.82
2024-04-19T05:37:41.673Z,5.89
2024-04-19T05:38:43.927Z,5.98
2024-04-19T05:39:46.259Z,6.01
2024-04-19T05:40:49.018Z,5.96
2024-04-19T05:41:51.150Z,6.02
2024-04-19T05:42:54.088Z,6.08
2024-04-19T05:43:56.832Z,6.11
2024-04-19T05:44:58.919Z,6.12
2024-04-19T05:46:01.598Z,6.14
2024-04-19T05:47:03.946Z,6.16
2024-04-19T05:48:07.211Z,6.13
2024-04-19T05:49:09.858Z,6.15
2024-04-19T05:50:12.696Z,6.14
2024-04-19T05:51:14.881Z,6.13
2024-04-19T05:52:17.203Z,6.16
2024-04-19T05:53:19.531Z,6.17
2024-04-19T05:54:21.766Z,6.28
2024-04-19T05:55:26.224Z,6.30
2024-04-19T05:56:29.430Z,6.32
2024-04-19T05:57:31.789Z,6.38
2024-04-19T05:58:34.357Z,6.32
2024-04-19T05:59:36.873Z,6.34
2024-04-19T06:00:39.774Z,6.36
2024-04-19T06:01:43.459Z,6.33
2024-04-19T06:02:47.275Z,6.26
2024-04-19T06:03:50.014Z,6.21
2024-04-19T06:04:52.516Z,6.14
2024-04-19T06:05:54.541Z,6.22
2024-04-19T06:06:56.886Z,6.29
2024-04-19T06:07:59.165Z,6.29
2024-04-19T06:09:01.312Z,6.31
2024-04-19T06:10:05.930Z,6.40
2024-04-19T06:11:08.691Z,6.49
2024-04-19T06:12:11.231Z,6.44
2024-04-19T06:13:13.936Z,6.31
2024-04-19T06:14:16.064Z,6.42
2024-04-19T06:15:19.718Z,6.48
2024-04-19T06:16:22.777Z,6.57
2024-04-19T06:17:25.013Z,6.68
2024-04-19T06:18:27.284Z,6.71
2024-04-19T06:19:29.769Z,6.59
2024-04-19T06:20:32.017Z,6.69
2024-04-19T06:21:34.337Z,6.80
2024-04-19T06:22:36.953Z,6.83
2024-04-19T06:23:39.508Z,6.92
2024-04-19T06:24:41.778Z,6.90
2024-04-19T06:25:44.186Z,6.74
2024-04-19T06:26:46.802Z,6.78
2024-04-19T06:27:49.224Z,6.79
2024-04-19T06:28:51.263Z,6.81
2024-04-19T06:29:53.980Z,6.88
2024-04-19T06:30:56.288Z,6.82
2024-04-19T06:31:58.329Z,6.76
2024-04-19T06:33:00.709Z,6.77
2024-04-19T06:34:05.674Z,6.80
2024-04-19T06:35:09.857Z,6.85
2024-04-19T06:36:12.418Z,6.85
2024-04-19T06:37:14.716Z,6.94
2024-04-19T06:38:16.895Z,7.00
2024-04-19T06:39:23.850Z,7.02
2024-04-19T06:40:26.017Z,6.97
2024-04-19T06:41:30.559Z,6.98
2024-04-19T06:42:32.933Z,6.94
2024-04-19T06:43:35.340Z,6.95
2024-04-19T06:44:37.803Z,7.09
2024-04-19T06:45:40.338Z,7.06
2024-04-19T06:46:43.156Z,7.10
2024-04-19T06:47:46.496Z,7.08
2024-04-19T06:48:49.218Z,7.04
2024-04-19T06:49:51.905Z,7.12
2024-04-19T06:50:54.612Z,7.22
2024-04-19T06:51:57.153Z,7.17
2024-04-19T06:52:59.582Z,7.10
2024-04-19T06:54:02.554Z,7.07
2024-04-19T06:55:05.532Z,7.14
2024-04-19T06:56:08.543Z,7.16
2024-04-19T06:57:10.912Z,7.17
2024-04-19T06:58:13.226Z,7.19
2024-04-19T06:59:15.556Z,7.21
2024-04-19T07:00:30.661Z,7.17
2024-04-19T07:01:23.850Z,7.10
2024-04-19T07:02:26.429Z,7.16
2024-04-19T07:03:29.452Z,7.26
2024-04-19T07:04:32.244Z,7.31
2024-04-19T07:05:34.578Z,7.27
2024-04-19T07:06:41.824Z,7.27
2024-04-19T07:07:41.446Z,7.34
2024-04-19T07:08:46.536Z,7.32
2024-04-19T07:09:50.939Z,7.33
2024-04-19T07:10:53.080Z,7.39
2024-04-19T07:11:55.482Z,7.43
2024-04-19T07:12:57.636Z,7.46
2024-04-19T07:13:59.738Z,7.42
2024-04-19T07:15:01.935Z,7.30
2024-04-19T07:16:04.659Z,7.35
2024-04-19T07:17:07.982Z,7.32
2024-04-19T07:18:10.198Z,7.29
2024-04-19T07:19:12.356Z,7.48
2024-04-19T07:20:14.679Z,7.47
2024-04-19T07:21:18.138Z,7.49
2024-04-19T07:22:20.530Z,7.61
2024-04-19T07:23:23.571Z,7.66
2024-04-19T07:24:25.846Z,7.60
2024-04-19T07:25:28.301Z,7.62
2024-04-19T07:26:31.146Z,7.42
2024-04-19T07:27:39.156Z,7.52
2024-04-19T07:28:37.438Z,7.44
2024-04-19T07:29:40.376Z,7.46
2024-04-19T07:30:43.870Z,7.45
2024-04-19T07:31:46.274Z,7.47
2024-04-19T07:32:48.928Z,7.58
2024-04-19T07:33:51.767Z,7.61
2024-04-19T07:34:54.156Z,7.67
2024-04-19T07:35:56.300Z,7.63
2024-04-19T07:37:01.282Z,7.69
2024-04-19T07:38:04.069Z,7.65
2024-04-19T07:39:07.252Z,7.75
2024-04-19T07:40:10.809Z,7.83
2024-04-19T07:41:14.217Z,7.75
2024-04-19T07:42:18.882Z,7.77
2024-04-19T07:43:21.468Z,7.77
2024-04-19T07:44:23.843Z,7.90
2024-04-19T07:45:26.416Z,8.00
2024-04-19T07:46:28.784Z,7.92
2024-04-19T07:47:31.357Z,7.83
2024-04-19T07:48:34.578Z,7.93
2024-04-19T07:49:36.701Z,8.02
2024-04-19T07:50:40.713Z,7.78
2024-04-19T07:51:43.404Z,7.79
2024-04-19T07:52:48.201Z,7.91
2024-04-19T07:53:50.854Z,8.03
2024-04-19T07:54:53.345Z,7.93
2024-04-19T07:55:55.803Z,7.93
2024-04-19T07:56:58.155Z,7.99
2024-04-19T07:58:00.743Z,7.95
2024-04-19T07:59:03.061Z,8.04
2024-04-19T08:00:08.573Z,7.99
2024-04-19T08:01:13.097Z,8.09
2024-04-19T08:02:17.191Z,7.97
2024-04-19T08:03:20.565Z,7.97
2024-04-19T08:04:25.227Z,8.05
2024-04-19T08:05:27.585Z,7.94
2024-04-19T08:06:30.104Z,7.98
2024-04-19T08:07:39.764Z,7.95
2024-04-19T08:08:36.445Z,7.71
2024-04-19T08:09:38.599Z,7.78
2024-04-19T08:10:41.176Z,7.75
2024-04-19T08:11:43.506Z,7.60
2024-04-19T08:12:46.253Z,7.69
2024-04-19T08:13:50.114Z,7.69
2024-04-19T08:14:52.759Z,7.76
2024-04-19T08:15:55.362Z,7.84
2024-04-19T08:16:58.125Z,7.71
2024-04-19T08:18:00.282Z,7.59
2024-04-19T08:19:02.536Z,7.54
2024-04-19T08:20:06.418Z,7.59
2024-04-19T08:21:08.765Z,7.71
2024-04-19T08:22:12.412Z,7.77
2024-04-19T08:23:15.605Z,7.94
2024-04-19T08:24:19.043Z,7.93
2024-04-19T08:25:23.657Z,7.79
2024-04-19T08:26:26.045Z,7.70
2024-04-19T08:27:28.563Z,7.86
2024-04-19T08:28:30.871Z,8.05
2024-04-19T08:29:35.579Z,7.96
2024-04-19T08:30:37.389Z,7.96
2024-04-19T08:31:41.636Z,8.23
2024-04-19T08:32:43.799Z,8.25
2024-04-19T08:33:46.079Z,8.13
2024-04-19T08:34:49.618Z,8.28
2024-04-19T08:35:56.441Z,8.11
2024-04-19T08:36:58.710Z,8.10
2024-04-19T08:38:01.344Z,8.29
2024-04-19T08:39:03.972Z,8.09
2024-04-19T08:40:14.779Z,8.17
2024-04-19T08:41:20.527Z,8.07
2024-04-19T08:42:25.087Z,8.12
2024-04-19T08:43:30.069Z,7.98
2024-04-19T08:44:34.494Z,7.86
2024-04-19T08:45:37.485Z,7.87
2024-04-19T08:46:41.617Z,7.97
2024-04-19T08:47:46.484Z,7.84
2024-04-19T08:48:51.455Z,7.66
2024-04-19T08:49:55.942Z,7.59
2024-04-19T08:51:00.194Z,7.57
2024-04-19T08:52:20.696Z,7.60
2024-04-19T08:53:15.737Z,7.63
2024-04-19T08:54:15.726Z,7.58
2024-04-19T08:55:19.885Z,7.69
2024-04-19T08:56:24.078Z,7.69
2024-04-19T08:57:27.301Z,7.63
2024-04-19T08:58:30.956Z,7.63
2024-04-19T08:59:33.677Z,7.70
2024-04-19T09:00:36.403Z,7.76
2024-04-19T09:01:38.713Z,7.89
2024-04-19T09:02:41.000Z,7.74
2024-04-19T09:03:43.606Z,7.70
2024-04-19T09:04:45.862Z,7.63
2024-04-19T09:05:48.855Z,7.61
2024-04-19T09:06:51.256Z,7.43
2024-04-19T09:07:53.367Z,7.32
2024-04-19T09:08:56.093Z,7.37
2024-04-19T09:10:03.485Z,7.34
2024-04-19T09:11:11.762Z,7.46
2024-04-19T09:12:14.222Z,7.49
2024-04-19T09:13:16.445Z,7.50
2024-04-19T09:14:18.602Z,7.76
2024-04-19T09:15:20.764Z,7.77
2024-04-19T09:16:24.274Z,7.76
2024-04-19T09:17:29.016Z,7.92
2024-04-19T09:18:31.892Z,8.01
2024-04-19T09:19:35.988Z,8.18
2024-04-19T09:20:45.040Z,8.24
2024-04-19T09:21:47.735Z,8.12
2024-04-19T09:22:50.810Z,8.29
2024-04-19T09:23:53.227Z,8.42
2024-04-19T09:24:56.136Z,8.62
2024-04-19T09:26:00.477Z,8.65
2024-04-19T09:27:14.188Z,8.42
2024-04-19T09:28:12.218Z,8.55
2024-04-19T09:29:16.585Z,8.65
2024-04-19T09:30:19.738Z,8.64
2024-04-19T09:31:21.983Z,8.58
2024-04-19T09:32:24.487Z,8.38
2024-04-19T09:33:27.631Z,8.23
2024-04-19T09:34:30.582Z,8.18
2024-04-19T09:35:33.517Z,8.10
2024-04-19T09:36:50.024Z,8.06
2024-04-19T09:37:53.408Z,8.15
2024-04-19T09:38:57.611Z,8.21
2024-04-19T09:40:00.426Z,8.17
2024-04-19T09:41:05.212Z,8.11
2024-04-19T09:42:10.663Z,8.04
2024-04-19T09:43:16.448Z,8.27
2024-04-19T09:44:22.693Z,8.37
2024-04-19T09:45:25.715Z,8.31
2024-04-19T09:46:30.360Z,8.34
2024-04-19T09:47:36.213Z,8.26
2024-04-19T09:48:43.135Z,8.21
2024-04-19T09:49:47.206Z,8.02
2024-04-19T09:50:50.010Z,8.00
2024-04-19T09:51:52.920Z,8.07
2024-04-19T09:52:58.783Z,8.14
2024-04-19T09:54:04.966Z,8.15
2024-04-19T09:55:17.023Z,8.05
2024-04-19T09:56:25.615Z,8.26
2024-04-19T09:57:30.888Z,8.30
2024-04-19T09:58:35.950Z,8.49
2024-04-19T09:59:40.034Z,8.60
2024-04-19T10:00:44.226Z,8.59
2024-04-19T10:01:47.207Z,8.65
2024-04-19T10:02:50.558Z,8.74
2024-04-19T10:03:55.828Z,8.69
2024-04-19T10:04:59.560Z,8.38
2024-04-19T10:06:05.883Z,8.29
2024-04-19T10:07:11.966Z,8.30
2024-04-19T10:08:16.303Z,8.35
2024-04-19T10:09:21.637Z,8.30
2024-04-19T10:10:24.575Z,8.37
2024-04-19T10:11:27.675Z,8.32
2024-04-19T10:12:32.380Z,8.41
2024-04-19T10:13:35.162Z,8.45
2024-04-19T10:14:37.810Z,8.37
2024-04-19T10:15:40.255Z,8.41
2024-04-19T10:16:43.753Z,8.46
2024-04-19T10:17:46.961Z,8.33
2024-04-19T10:18:50.816Z,8.30
2024-04-19T10:19:55.203Z,8.31
2024-04-19T10:20:57.615Z,8.43
2024-04-19T10:22:03.038Z,8.61
2024-04-19T10:23:05.449Z,8.58
2024-04-19T10:24:17.981Z,8.53
2024-04-19T10:25:24.980Z,8.61
2024-04-19T10:26:27.562Z,8.84
2024-04-19T10:27:30.626Z,8.89
2024-04-19T10:28:33.152Z,8.95
2024-04-19T10:29:35.628Z,9.14
2024-04-19T10:30:41.107Z,9.29
2024-04-19T10:31:47.628Z,9.30
2024-04-19T10:32:52.650Z,9.08
2024-04-19T10:33:55.445Z,8.84
2024-04-19T10:34:58.212Z,8.81
2024-04-19T10:36:02.694Z,8.62
2024-04-19T10:37:05.629Z,8.63
2024-04-19T10:38:08.295Z,8.74
2024-04-19T10:39:10.919Z,8.79
2024-04-19T10:40:15.012Z,8.78
2024-04-19T10:41:18.297Z,8.53
2024-04-19T10:42:22.566Z,8.43
2024-04-19T10:43:24.961Z,8.35
2024-04-19T10:44:28.971Z,8.38
2024-04-19T10:45:31.469Z,8.37
2024-04-19T10:46:33.980Z,8.42
2024-04-19T10:47:37.367Z,8.52
2024-04-19T10:48:41.553Z,8.66
2024-04-19T10:49:44.772Z,8.91
2024-04-19T10:50:47.542Z,8.87
2024-04-19T10:51:51.014Z,9.15
2024-04-19T10:52:53.730Z,9.23
2024-04-19T10:53:56.802Z,9.13
2024-04-19T10:54:59.537Z,9.12
2024-04-19T10:56:02.501Z,8.90
2024-04-19T10:57:05.461Z,8.98
2024-04-19T10:58:07.813Z,8.81
2024-04-19T10:59:10.064Z,8.73
2024-04-19T11:00:15.750Z,8.68
2024-04-19T11:01:18.615Z,8.70
2024-04-19T11:02:22.303Z,8.70
2024-04-19T11:03:25.986Z,8.83
2024-04-19T11:04:29.032Z,8.87
2024-04-19T11:05:31.435Z,9.10
2024-04-19T11:06:34.803Z,9.08
2024-04-19T11:07:38.536Z,9.06
2024-04-19T11:08:44.457Z,9.00
2024-04-19T11:09:48.930Z,9.20
2024-04-19T11:10:52.741Z,9.10
2024-04-19T11:11:56.865Z,9.27
2024-04-19T11:12:59.495Z,9.27
2024-04-19T11:14:01.834Z,9.46
2024-04-19T11:15:05.239Z,9.49
2024-04-19T11:16:08.220Z,9.49
2024-04-19T11:17:10.529Z,9.40
2024-04-19T11:18:12.640Z,9.37
2024-04-19T11:20:20.778Z,9.23
2024-04-19T11:21:23.121Z,9.01
2024-04-19T11:22:26.469Z,9.11
2024-04-19T11:23:29.134Z,9.16
2024-04-19T11:24:34.551Z,9.09
2024-04-19T11:25:38.722Z,9.08
2024-04-19T11:26:41.966Z,9.03
2024-04-19T11:27:44.856Z,9.09
2024-04-19T11:28:51.369Z,9.10
2024-04-19T11:29:53.731Z,8.87
2024-04-19T11:30:56.954Z,9.05
2024-04-19T11:32:05.166Z,8.95
2024-04-19T11:33:10.289Z,8.89
2024-04-19T11:34:13.248Z,9.07
2024-04-19T11:35:18.090Z,9.26
2024-04-19T11:36:20.386Z,9.50
2024-04-19T11:37:22.650Z,9.61
2024-04-19T11:38:25.088Z,9.67
2024-04-19T11:39:27.561Z,9.56
2024-04-19T11:40:31.172Z,9.60
2024-04-19T11:41:34.395Z,9.61
2024-04-19T11:42:36.690Z,9.43
2024-04-19T11:43:38.976Z,9.43
2024-04-19T11:44:42.801Z,9.54
2024-04-19T11:45:45.992Z,9.82
2024-04-19T11:46:50.381Z,9.87
2024-04-19T11:47:53.157Z,9.95
2024-04-19T11:48:59.608Z,10.00
2024-04-19T11:50:02.849Z,10.13
2024-04-19T11:51:05.369Z,10.31
2024-04-19T11:52:09.380Z,10.32
2024-04-19T11:53:11.634Z,9.99
2024-04-19T11:54:18.296Z,10.15
2024-04-19T11:55:22.876Z,10.46
2024-04-19T11:56:25.684Z,10.43
2024-04-19T11:57:27.936Z,10.52
2024-04-19T11:58:30.815Z,10.70
2024-04-19T11:59:35.663Z,10.69
2024-04-19T12:00:38.343Z,10.66
2024-04-19T12:01:40.715Z,10.90
2024-04-19T12:02:43.107Z,11.18
2024-04-19T12:03:45.589Z,10.85
2024-04-19T12:04:48.140Z,10.62
2024-04-19T12:05:51.039Z,10.47
2024-04-19T12:06:53.810Z,10.49
2024-04-19T12:07:56.345Z,10.54
2024-04-19T12:08:58.857Z,10.50
2024-04-19T12:10:01.428Z,10.28
2024-04-19T12:11:04.776Z,10.21
2024-04-19T12:13:58.992Z,10.24
2024-04-19T12:15:12.919Z,10.52
2024-04-19T12:16:05.050Z,10.75
2024-04-19T12:16:39.906Z,10.94
2024-04-19T12:17:33.254Z,11.22
2024-04-19T12:18:36.212Z,11.62
2024-04-19T12:19:39.440Z,11.66
2024-04-19T12:20:50.997Z,11.46
2024-04-19T12:21:47.622Z,11.10
2024-04-19T12:22:57.091Z,10.65
2024-04-19T12:23:56.325Z,10.51
2024-04-19T12:24:59.082Z,10.34
2024-04-19T12:26:02.801Z,10.16
2024-04-19T12:27:07.226Z,10.14
2024-04-19T12:28:09.878Z,10.13
2024-04-19T12:29:12.231Z,10.06
2024-04-19T12:30:15.013Z,10.05
2024-04-19T12:31:17.307Z,10.10
2024-04-19T12:32:19.544Z,10.32
2024-04-19T12:33:22.584Z,10.46
2024-04-19T12:34:24.827Z,10.41
2024-04-19T12:35:28.712Z,10.37
2024-04-19T12:36:31.019Z,10.17
2024-04-19T12:37:33.516Z,10.25
2024-04-19T12:38:36.132Z,10.05
2024-04-19T12:39:38.391Z,10.00
2024-04-19T12:40:43.361Z,10.06
2024-04-19T12:41:45.715Z,9.86
2024-04-19T12:42:48.717Z,9.98
2024-04-19T12:43:51.724Z,10.37
2024-04-19T12:44:54.613Z,10.82
2024-04-19T12:45:58.296Z,10.82
2024-04-19T12:47:00.824Z,11.16
2024-04-19T12:48:07.945Z,11.38
2024-04-19T12:49:12.454Z,11.55
2024-04-19T12:50:15.207Z,11.55
2024-04-19T12:51:19.368Z,11.59
2024-04-19T12:52:24.841Z,11.28
2024-04-19T12:53:27.995Z,11.13
2024-04-19T12:54:30.278Z,11.21
2024-04-19T12:55:35.999Z,11.00
2024-04-19T12:56:40.056Z,10.75
2024-04-19T12:57:42.655Z,10.48
2024-04-19T12:58:45.772Z,10.45
2024-04-19T12:59:48.664Z,10.62
2024-04-19T13:00:51.495Z,10.90
2024-04-19T13:01:53.735Z,11.31
2024-04-19T13:02:56.553Z,11.77
2024-04-19T13:03:59.192Z,11.85
2024-04-19T13:05:02.101Z,11.96
2024-04-19T13:06:05.532Z,12.25
2024-04-19T13:07:07.815Z,12.17
2024-04-19T13:08:10.237Z,12.11
2024-04-19T13:09:15.186Z,11.62
2024-04-19T13:10:19.523Z,11.44
2024-04-19T13:11:21.730Z,11.31
2024-04-19T13:12:24.107Z,11.52
2024-04-19T13:13:26.429Z,11.66
2024-04-19T13:14:28.633Z,11.94
2024-04-19T13:15:30.903Z,12.00
2024-04-19T13:16:33.282Z,11.91
2024-04-19T13:17:37.826Z,11.92
2024-04-19T13:18:40.701Z,12.20
2024-04-19T13:19:42.999Z,12.08
2024-04-19T13:20:45.847Z,11.99
2024-04-19T13:21:48.210Z,12.10
2024-04-19T13:22:50.303Z,12.19
2024-04-19T13:23:52.454Z,12.29
2024-04-19T13:24:54.754Z,12.08
2024-04-19T13:25:57.208Z,12.47
2024-04-19T13:27:00.030Z,12.18
2024-04-19T13:28:02.438Z,11.69
2024-04-19T13:29:04.684Z,11.43
2024-04-19T13:30:08.561Z,11.28
2024-04-19T13:31:11.356Z,11.34
2024-04-19T13:32:13.554Z,10.85
2024-04-19T13:33:15.928Z,10.71
2024-04-19T13:34:18.212Z,10.32
2024-04-19T13:35:20.976Z,10.35
2024-04-19T13:36:23.701Z,10.41
2024-04-19T13:37:26.753Z,10.28
2024-04-19T13:38:29.310Z,10.14
2024-04-19T13:39:31.462Z,10.15
2024-04-19T13:40:33.869Z,9.96
2024-04-19T13:41:36.210Z,9.77
2024-04-19T13:42:38.495Z,9.51
2024-04-19T13:43:40.946Z,9.55
2024-04-19T13:44:43.455Z,9.57
2024-04-19T13:45:46.513Z,9.42
2024-04-19T13:46:48.891Z,9.44
2024-04-19T13:47:51.276Z,9.48
2024-04-19T13:48:53.604Z,9.45
2024-04-19T13:49:55.966Z,9.54
2024-04-19T13:50:58.838Z,9.48
2024-04-19T13:52:01.361Z,9.26
2024-04-19T13:53:05.059Z,9.36
2024-04-19T13:54:09.532Z,9.36
2024-04-19T13:55:12.212Z,9.33
2024-04-19T13:56:15.536Z,9.28
2024-04-19T13:57:19.845Z,9.12
2024-04-19T13:58:24.410Z,9.21
2024-04-19T13:59:27.174Z,9.27
2024-04-19T14:00:29.587Z,9.38
2024-04-19T14:01:32.267Z,9.51
2024-04-19T14:02:34.697Z,9.55